Salem, IN

7:36 PM EST on March 05, 2015 (GMT -0500)
Uplands PEAK Sanctuary | Change Station
CLOSE
Current Station
Personal Weather Station
Location: Salem, IN
Elevation: 761 ft
Nearby Weather Stations
Active Advisory: Flood Warning Active Notice: Record Report, Public Information Statement

Elev 761 ft 38.49 °N, 86.17 °W | Updated 12 minutes ago

Mostly Cloudy
Mostly Cloudy
18.1 °F
Feels Like 18 °F
N
0.0
Wind Variable Wind from SE

Today
High -- | Low -- °F
--% Chance of Precip.
Yesterday
High -- | Low -- °F
Precip. -- in
7:11 AM 6:41 PM
Full, 100% visible
Pressure 30.52 in
Visibility 10.0 miles
Clouds Overcast 4400 ft
Windchill 18 °F
Dew Point 13 °F
Humidity 79%
Rainfall in
Snow Depth Not available.
UV 0 out of 12
Pollen .80 out of 12
Air Quality Not available.
Flu Activity Not available.
METAR KLOU 052353Z 01003KT 10SM OVC044 M03/M11 A3050 RMK AO2 SLP335 T10331111 11017 21050 52020

More Conditions Fewer Conditions

Pressure 30.52 in
Visibility 10.0 miles
Clouds Overcast 4400 ft
Windchill 18 °F
Dew Point 13 °F
Humidity 79%
Rainfall in
Snow Depth Not available.
UV 0 out of 12
Pollen .80 out of 12
Air Quality Not available.
Flu Activity Not available.
METAR KLOU 052353Z 01003KT 10SM OVC044 M03/M11 A3050 RMK AO2 SLP335 T10331111 11017 21050 52020

More Conditions Fewer Conditions

10-Day Weather Forecast

Almanac

Astronomy

Mar. 05, 2015 Rise Set
Actual Time
Civil Twilight
Nautical Twilight
Astronomical Twilight
Moon
Length of Visible Light
Length of Day
Tomorrow will be .
, % of the Moon is Illuminated

Today's Extremes

State Highs State Lows

Community

WunderPhotos

Upload Photos

1,803,071 photos uploaded!

WunderBlogs® & News

Nearby

Air Quality

  Air Quality AQ Index Pollutant
Not available.

Snow Depth

Station Depth Elevation

Earthquake Activity

City Distance Mag. Time & Date
Minimum magnitude displayed is 2.5.

Coastal Water Temperatures

Place Temperature

Nearby Weather Stations

Flood Warning
Statement as of 12:08 PM EST on March 05, 2015

The Flood Warning continues for
the muscatatuck river at Wheeler Hollow.
* From Friday morning to Sunday evening.
* Flood stage is 16.0 feet.
* Forecast... the river is forecast to have a maximum value of 18.9
feet Saturday morning.
* At 20.0 feet... high water is noticed along the river. Flood waters
in a few backyards. A few roads are flooded.


Lat... Lon 3878 8591 3878 8603 3880 8615 3876 8618
      3873 8605 3874 8591